sensor_id;sensor_type;location;lat;lon;timestamp;temperature;humidity
31991;DHT22;18508;49.386;8.370;2023-04-15T00:01:57;4.50;99.90
31991;DHT22;18508;49.386;8.370;2023-04-15T00:04:30;4.50;99.90
31991;DHT22;18508;49.386;8.370;2023-04-15T00:07:04;4.40;99.90
31991;DHT22;18508;49.386;8.370;2023-04-15T00:09:34;4.50;99.90
31991;DHT22;18508;49.386;8.370;2023-04-15T00:12:03;4.50;99.90
31991;DHT22;18508;49.386;8.370;2023-04-15T00:14:33;4.40;99.90
31991;DHT22;18508;49.386;8.370;2023-04-15T00:17:01;4.50;99.90
31991;DHT22;18508;49.386;8.370;2023-04-15T00:19:30;4.40;99.90
31991;DHT22;18508;49.386;8.370;2023-04-15T00:22:05;4.40;99.90
31991;DHT22;18508;49.386;8.370;2023-04-15T00:24:34;4.40;99.90
31991;DHT22;18508;49.386;8.370;2023-04-15T00:27:02;4.40;99.90
31991;DHT22;18508;49.386;8.370;2023-04-15T00:29:32;4.30;99.90
31991;DHT22;18508;49.386;8.370;2023-04-15T00:32:03;4.30;99.90
31991;DHT22;18508;49.386;8.370;2023-04-15T00:34:30;4.20;99.90
31991;DHT22;18508;49.386;8.370;2023-04-15T00:36:59;4.20;99.90
31991;DHT22;18508;49.386;8.370;2023-04-15T00:39:29;4.10;99.90
31991;DHT22;18508;49.386;8.370;2023-04-15T00:41:57;4.10;99.90
31991;DHT22;18508;49.386;8.370;2023-04-15T00:44:26;4.10;99.90
31991;DHT22;18508;49.386;8.370;2023-04-15T00:46:54;4.10;99.90
31991;DHT22;18508;49.386;8.370;2023-04-15T00:49:24;4.00;99.90
31991;DHT22;18508;49.386;8.370;2023-04-15T00:51:54;4.00;99.90
31991;DHT22;18508;49.386;8.370;2023-04-15T00:54:24;4.00;99.90
31991;DHT22;18508;49.386;8.370;2023-04-15T00:56:54;3.90;99.90
31991;DHT22;18508;49.386;8.370;2023-04-15T00:59:23;3.80;99.90
31991;DHT22;18508;49.386;8.370;2023-04-15T01:01:52;3.70;99.90
31991;DHT22;18508;49.386;8.370;2023-04-15T01:04:20;3.70;99.90
31991;DHT22;18508;49.386;8.370;2023-04-15T01:06:49;3.70;99.90
31991;DHT22;18508;49.386;8.370;2023-04-15T01:09:17;3.70;99.90
31991;DHT22;18508;49.386;8.370;2023-04-15T01:11:49;3.60;99.90
31991;DHT22;18508;49.386;8.370;2023-04-15T01:14:20;3.60;99.90
31991;DHT22;18508;49.386;8.370;2023-04-15T01:16:52;3.50;99.90
31991;DHT22;18508;49.386;8.370;2023-04-15T01:19:20;3.50;99.90
31991;DHT22;18508;49.386;8.370;2023-04-15T01:21:52;3.50;99.90
31991;DHT22;18508;49.386;8.370;2023-04-15T01:24:20;3.60;99.90
31991;DHT22;18508;49.386;8.370;2023-04-15T01:26:50;3.60;99.90
31991;DHT22;18508;49.386;8.370;2023-04-15T01:29:18;3.60;99.90
31991;DHT22;18508;49.386;8.370;2023-04-15T01:31:51;3.50;99.90
31991;DHT22;18508;49.386;8.370;2023-04-15T01:34:21;3.60;99.90
31991;DHT22;18508;49.386;8.370;2023-04-15T01:36:50;3.60;99.90
31991;DHT22;18508;49.386;8.370;2023-04-15T01:39:19;3.60;99.90
31991;DHT22;18508;49.386;8.370;2023-04-15T01:41:49;3.60;99.90
31991;DHT22;18508;49.386;8.370;2023-04-15T01:44:18;3.60;99.90
31991;DHT22;18508;49.386;8.370;2023-04-15T01:46:46;3.60;99.90
31991;DHT22;18508;49.386;8.370;2023-04-15T01:49:15;3.60;99.90
31991;DHT22;18508;49.386;8.370;2023-04-15T01:51:43;3.60;99.90
31991;DHT22;18508;49.386;8.370;2023-04-15T01:54:13;3.60;99.90
31991;DHT22;18508;49.386;8.370;2023-04-15T01:56:41;3.60;99.90
31991;DHT22;18508;49.386;8.370;2023-04-15T01:59:11;3.60;99.90
31991;DHT22;18508;49.386;8.370;2023-04-15T02:01:39;3.60;99.90
31991;DHT22;18508;49.386;8.370;2023-04-15T02:04:07;3.60;99.90
31991;DHT22;18508;49.386;8.370;2023-04-15T02:06:43;3.60;99.90
31991;DHT22;18508;49.386;8.370;2023-04-15T02:09:13;3.60;99.90
31991;DHT22;18508;49.386;8.370;2023-04-15T02:11:44;3.60;99.90
31991;DHT22;18508;49.386;8.370;2023-04-15T02:14:16;3.60;99.90
31991;DHT22;18508;49.386;8.370;2023-04-15T02:16:45;3.60;99.90
31991;DHT22;18508;49.386;8.370;2023-04-15T02:19:13;3.60;99.90
31991;DHT22;18508;49.386;8.370;2023-04-15T02:21:46;3.60;99.90
31991;DHT22;18508;49.386;8.370;2023-04-15T02:24:15;3.60;99.90
31991;DHT22;18508;49.386;8.370;2023-04-15T02:26:43;3.60;99.90
31991;DHT22;18508;49.386;8.370;2023-04-15T02:29:14;3.60;99.90
31991;DHT22;18508;49.386;8.370;2023-04-15T02:31:42;3.50;99.90
31991;DHT22;18508;49.386;8.370;2023-04-15T02:34:12;3.50;99.90
31991;DHT22;18508;49.386;8.370;2023-04-15T02:36:40;3.50;99.90
31991;DHT22;18508;49.386;8.370;2023-04-15T02:39:08;3.40;99.90
31991;DHT22;18508;49.386;8.370;2023-04-15T02:41:40;3.40;99.90
31991;DHT22;18508;49.386;8.370;2023-04-15T02:44:14;3.30;99.90
31991;DHT22;18508;49.386;8.370;2023-04-15T02:46:43;3.20;99.90
31991;DHT22;18508;49.386;8.370;2023-04-15T02:49:14;3.10;99.90
31991;DHT22;18508;49.386;8.370;2023-04-15T02:51:43;3.10;99.90
31991;DHT22;18508;49.386;8.370;2023-04-15T02:54:18;3.10;99.90
31991;DHT22;18508;49.386;8.370;2023-04-15T02:56:48;3.00;99.90
31991;DHT22;18508;49.386;8.370;2023-04-15T02:59:19;2.90;99.90
31991;DHT22;18508;49.386;8.370;2023-04-15T03:01:48;2.80;99.90
31991;DHT22;18508;49.386;8.370;2023-04-15T03:04:17;2.80;99.90
31991;DHT22;18508;49.386;8.370;2023-04-15T03:06:45;2.70;99.90
31991;DHT22;18508;49.386;8.370;2023-04-15T03:09:13;2.70;99.90
31991;DHT22;18508;49.386;8.370;2023-04-15T03:11:41;2.70;99.90
31991;DHT22;18508;49.386;8.370;2023-04-15T03:14:09;2.70;99.90
31991;DHT22;18508;49.386;8.370;2023-04-15T03:16:39;2.60;99.90
31991;DHT22;18508;49.386;8.370;2023-04-15T03:19:07;2.60;99.90
31991;DHT22;18508;49.386;8.370;2023-04-15T03:21:35;2.60;99.90
31991;DHT22;18508;49.386;8.370;2023-04-15T03:24:04;2.60;99.90
31991;DHT22;18508;49.386;8.370;2023-04-15T03:26:37;2.60;99.90
31991;DHT22;18508;49.386;8.370;2023-04-15T03:29:06;2.60;99.90
31991;DHT22;18508;49.386;8.370;2023-04-15T03:31:34;2.60;99.90
31991;DHT22;18508;49.386;8.370;2023-04-15T03:34:05;2.60;99.90
31991;DHT22;18508;49.386;8.370;2023-04-15T03:36:33;2.60;99.90
31991;DHT22;18508;49.386;8.370;2023-04-15T03:39:02;2.60;99.90
31991;DHT22;18508;49.386;8.370;2023-04-15T03:41:30;2.60;99.90
31991;DHT22;18508;49.386;8.370;2023-04-15T03:43:59;2.60;99.90
31991;DHT22;18508;49.386;8.370;2023-04-15T03:46:27;2.60;99.90
31991;DHT22;18508;49.386;8.370;2023-04-15T03:48:55;2.60;99.90
31991;DHT22;18508;49.386;8.370;2023-04-15T03:51:25;2.50;99.90
31991;DHT22;18508;49.386;8.370;2023-04-15T03:53:56;2.50;99.90
31991;DHT22;18508;49.386;8.370;2023-04-15T03:56:25;2.50;99.90
31991;DHT22;18508;49.386;8.370;2023-04-15T03:58:53;2.50;99.90
31991;DHT22;18508;49.386;8.370;2023-04-15T04:01:22;2.50;99.90
31991;DHT22;18508;49.386;8.370;2023-04-15T04:03:50;2.60;99.90
31991;DHT22;18508;49.386;8.370;2023-04-15T04:06:19;2.50;99.90
31991;DHT22;18508;49.386;8.370;2023-04-15T04:08:49;2.50;99.90
31991;DHT22;18508;49.386;8.370;2023-04-15T04:11:16;2.40;99.90
31991;DHT22;18508;49.386;8.370;2023-04-15T04:13:47;2.40;99.90
31991;DHT22;18508;49.386;8.370;2023-04-15T04:16:15;2.30;99.90
31991;DHT22;18508;49.386;8.370;2023-04-15T04:18:46;2.20;99.90
31991;DHT22;18508;49.386;8.370;2023-04-15T04:21:14;2.20;99.90
31991;DHT22;18508;49.386;8.370;2023-04-15T04:23:43;2.20;99.90
31991;DHT22;18508;49.386;8.370;2023-04-15T04:26:12;2.20;99.90
31991;DHT22;18508;49.386;8.370;2023-04-15T04:28:41;2.20;99.90
31991;DHT22;18508;49.386;8.370;2023-04-15T04:31:09;2.20;99.90
31991;DHT22;18508;49.386;8.370;2023-04-15T04:33:38;2.20;99.90
31991;DHT22;18508;49.386;8.370;2023-04-15T04:36:07;2.20;99.90
31991;DHT22;18508;49.386;8.370;2023-04-15T04:38:37;2.20;99.90
31991;DHT22;18508;49.386;8.370;2023-04-15T04:41:06;2.20;99.90
31991;DHT22;18508;49.386;8.370;2023-04-15T04:43:36;2.20;99.90
31991;DHT22;18508;49.386;8.370;2023-04-15T04:46:07;2.20;99.90
31991;DHT22;18508;49.386;8.370;2023-04-15T04:48:35;2.30;99.90
31991;DHT22;18508;49.386;8.370;2023-04-15T04:51:03;2.30;99.90
31991;DHT22;18508;49.386;8.370;2023-04-15T04:53:31;2.30;99.90
31991;DHT22;18508;49.386;8.370;2023-04-15T04:55:59;2.30;99.90
31991;DHT22;18508;49.386;8.370;2023-04-15T04:58:29;2.40;99.90
31991;DHT22;18508;49.386;8.370;2023-04-15T05:00:59;2.40;99.90
31991;DHT22;18508;49.386;8.370;2023-04-15T05:03:29;2.50;99.90
31991;DHT22;18508;49.386;8.370;2023-04-15T05:05:58;2.50;99.90
31991;DHT22;18508;49.386;8.370;2023-04-15T05:08:26;2.60;99.90
31991;DHT22;18508;49.386;8.370;2023-04-15T05:10:55;2.70;99.90
31991;DHT22;18508;49.386;8.370;2023-04-15T05:13:23;2.70;99.90
31991;DHT22;18508;49.386;8.370;2023-04-15T05:15:51;2.70;99.90
31991;DHT22;18508;49.386;8.370;2023-04-15T05:18:21;2.60;99.90
31991;DHT22;18508;49.386;8.370;2023-04-15T05:20:49;2.60;99.90
31991;DHT22;18508;49.386;8.370;2023-04-15T05:23:18;2.60;99.90
31991;DHT22;18508;49.386;8.370;2023-04-15T05:25:48;2.60;99.90
31991;DHT22;18508;49.386;8.370;2023-04-15T05:28:17;2.70;99.90
31991;DHT22;18508;49.386;8.370;2023-04-15T05:30:45;2.70;99.90
31991;DHT22;18508;49.386;8.370;2023-04-15T05:33:15;2.80;99.90
31991;DHT22;18508;49.386;8.370;2023-04-15T05:35:49;2.90;99.90
31991;DHT22;18508;49.386;8.370;2023-04-15T05:38:18;3.00;99.90
31991;DHT22;18508;49.386;8.370;2023-04-15T05:40:46;3.00;99.90
31991;DHT22;18508;49.386;8.370;2023-04-15T05:43:14;3.10;99.90
31991;DHT22;18508;49.386;8.370;2023-04-15T05:45:42;3.20;99.90
31991;DHT22;18508;49.386;8.370;2023-04-15T05:48:10;3.30;99.90
31991;DHT22;18508;49.386;8.370;2023-04-15T05:50:40;3.40;99.90
31991;DHT22;18508;49.386;8.370;2023-04-15T05:53:10;3.50;99.90
31991;DHT22;18508;49.386;8.370;2023-04-15T05:55:38;3.60;99.90
31991;DHT22;18508;49.386;8.370;2023-04-15T05:58:05;3.70;99.90
31991;DHT22;18508;49.386;8.370;2023-04-15T06:00:34;3.80;99.90
31991;DHT22;18508;49.386;8.370;2023-04-15T06:03:03;4.00;99.90
31991;DHT22;18508;49.386;8.370;2023-04-15T06:05:32;4.20;99.90
31991;DHT22;18508;49.386;8.370;2023-04-15T06:08:00;4.40;99.90
31991;DHT22;18508;49.386;8.370;2023-04-15T06:10:30;4.60;99.90
31991;DHT22;18508;49.386;8.370;2023-04-15T06:13:02;4.80;99.90
31991;DHT22;18508;49.386;8.370;2023-04-15T06:15:30;5.10;99.90
31991;DHT22;18508;49.386;8.370;2023-04-15T06:17:58;5.30;99.90
31991;DHT22;18508;49.386;8.370;2023-04-15T06:20:26;5.50;99.90
31991;DHT22;18508;49.386;8.370;2023-04-15T06:22:55;5.70;99.90
31991;DHT22;18508;49.386;8.370;2023-04-15T06:25:23;5.90;99.90
31991;DHT22;18508;49.386;8.370;2023-04-15T06:27:55;6.00;99.90
31991;DHT22;18508;49.386;8.370;2023-04-15T06:30:23;6.20;99.90
31991;DHT22;18508;49.386;8.370;2023-04-15T06:32:51;6.30;99.90
31991;DHT22;18508;49.386;8.370;2023-04-15T06:35:20;6.50;99.90
31991;DHT22;18508;49.386;8.370;2023-04-15T06:37:48;6.60;99.90
31991;DHT22;18508;49.386;8.370;2023-04-15T06:40:17;6.80;99.90
31991;DHT22;18508;49.386;8.370;2023-04-15T06:42:46;7.00;99.90
31991;DHT22;18508;49.386;8.370;2023-04-15T06:45:16;7.20;99.90
31991;DHT22;18508;49.386;8.370;2023-04-15T06:47:44;7.30;99.90
31991;DHT22;18508;49.386;8.370;2023-04-15T06:50:12;7.50;99.90
31991;DHT22;18508;49.386;8.370;2023-04-15T06:52:41;7.60;99.90
31991;DHT22;18508;49.386;8.370;2023-04-15T06:55:10;7.80;99.90
31991;DHT22;18508;49.386;8.370;2023-04-15T06:57:38;8.00;99.90
31991;DHT22;18508;49.386;8.370;2023-04-15T07:00:07;8.10;99.90
31991;DHT22;18508;49.386;8.370;2023-04-15T07:02:38;8.30;99.90
31991;DHT22;18508;49.386;8.370;2023-04-15T07:05:08;8.40;94.20
31991;DHT22;18508;49.386;8.370;2023-04-15T07:07:36;8.70;99.90
31991;DHT22;18508;49.386;8.370;2023-04-15T07:10:06;8.80;50.50
31991;DHT22;18508;49.386;8.370;2023-04-15T07:12:34;8.90;16.10
31991;DHT22;18508;49.386;8.370;2023-04-15T07:15:05;9.10;6.80
31991;DHT22;18508;49.386;8.370;2023-04-15T07:17:33;9.20;1.00
31991;DHT22;18508;49.386;8.370;2023-04-15T07:20:07;9.20;1.00
31991;DHT22;18508;49.386;8.370;2023-04-15T07:22:36;9.20;17.60
31991;DHT22;18508;49.386;8.370;2023-04-15T07:25:07;9.30;16.80
31991;DHT22;18508;49.386;8.370;2023-04-15T07:27:35;9.30;14.60
31991;DHT22;18508;49.386;8.370;2023-04-15T07:30:05;9.40;7.60
31991;DHT22;18508;49.386;8.370;2023-04-15T07:32:33;9.50;3.50
31991;DHT22;18508;49.386;8.370;2023-04-15T07:35:04;9.50;1.00
31991;DHT22;18508;49.386;8.370;2023-04-15T07:37:32;9.60;1.00
31991;DHT22;18508;49.386;8.370;2023-04-15T07:40:01;9.70;1.00
31991;DHT22;18508;49.386;8.370;2023-04-15T07:42:33;9.80;1.00
31991;DHT22;18508;49.386;8.370;2023-04-15T07:45:01;9.80;1.00
31991;DHT22;18508;49.386;8.370;2023-04-15T07:47:29;9.90;1.00
31991;DHT22;18508;49.386;8.370;2023-04-15T07:50:03;10.00;1.00
31991;DHT22;18508;49.386;8.370;2023-04-15T07:52:34;10.00;1.00
31991;DHT22;18508;49.386;8.370;2023-04-15T07:55:05;10.20;1.00
31991;DHT22;18508;49.386;8.370;2023-04-15T07:57:34;10.30;1.00
31991;DHT22;18508;49.386;8.370;2023-04-15T08:00:05;10.50;1.00
31991;DHT22;18508;49.386;8.370;2023-04-15T08:02:35;10.70;1.00
31991;DHT22;18508;49.386;8.370;2023-04-15T08:05:08;10.80;1.00
31991;DHT22;18508;49.386;8.370;2023-04-15T08:07:38;11.00;1.00
31991;DHT22;18508;49.386;8.370;2023-04-15T08:10:08;11.00;1.00
31991;DHT22;18508;49.386;8.370;2023-04-15T08:12:37;10.90;1.00
31991;DHT22;18508;49.386;8.370;2023-04-15T08:15:06;10.90;1.00
31991;DHT22;18508;49.386;8.370;2023-04-15T08:17:35;11.10;1.00
31991;DHT22;18508;49.386;8.370;2023-04-15T08:20:03;11.20;1.00
31991;DHT22;18508;49.386;8.370;2023-04-15T08:22:33;11.20;1.00
31991;DHT22;18508;49.386;8.370;2023-04-15T08:25:02;11.40;1.00
31991;DHT22;18508;49.386;8.370;2023-04-15T08:27:30;11.40;1.00
31991;DHT22;18508;49.386;8.370;2023-04-15T08:29:59;11.30;1.00
31991;DHT22;18508;49.386;8.370;2023-04-15T08:32:31;11.40;1.00
31991;DHT22;18508;49.386;8.370;2023-04-15T08:35:00;11.50;1.00
31991;DHT22;18508;49.386;8.370;2023-04-15T08:37:28;11.70;1.00
31991;DHT22;18508;49.386;8.370;2023-04-15T08:39:58;11.80;1.00
31991;DHT22;18508;49.386;8.370;2023-04-15T08:42:30;12.20;1.00
31991;DHT22;18508;49.386;8.370;2023-04-15T08:44:59;12.60;1.00
31991;DHT22;18508;49.386;8.370;2023-04-15T08:47:29;12.60;1.00
31991;DHT22;18508;49.386;8.370;2023-04-15T08:49:58;12.60;1.00
31991;DHT22;18508;49.386;8.370;2023-04-15T08:52:30;12.60;1.00
31991;DHT22;18508;49.386;8.370;2023-04-15T08:55:01;12.70;1.00
31991;DHT22;18508;49.386;8.370;2023-04-15T08:57:32;12.50;1.00
31991;DHT22;18508;49.386;8.370;2023-04-15T09:00:02;12.80;99.90
31991;DHT22;18508;49.386;8.370;2023-04-15T09:02:31;12.70;99.90
31991;DHT22;18508;49.386;8.370;2023-04-15T09:05:02;13.00;99.90
31991;DHT22;18508;49.386;8.370;2023-04-15T09:07:33;13.20;99.90
31991;DHT22;18508;49.386;8.370;2023-04-15T09:10:04;13.20;99.90
31991;DHT22;18508;49.386;8.370;2023-04-15T09:12:34;13.10;99.90
31991;DHT22;18508;49.386;8.370;2023-04-15T09:15:05;13.20;99.90
31991;DHT22;18508;49.386;8.370;2023-04-15T09:17:33;13.30;99.90
31991;DHT22;18508;49.386;8.370;2023-04-15T09:20:09;13.30;99.90
31991;DHT22;18508;49.386;8.370;2023-04-15T09:22:41;13.00;99.90
31991;DHT22;18508;49.386;8.370;2023-04-15T09:25:27;13.00;99.90
31991;DHT22;18508;49.386;8.370;2023-04-15T09:27:59;13.00;99.90
31991;DHT22;18508;49.386;8.370;2023-04-15T09:30:29;13.10;99.90
31991;DHT22;18508;49.386;8.370;2023-04-15T09:32:58;13.20;99.90
31991;DHT22;18508;49.386;8.370;2023-04-15T09:35:29;13.10;99.90
31991;DHT22;18508;49.386;8.370;2023-04-15T09:38:04;13.20;99.90
31991;DHT22;18508;49.386;8.370;2023-04-15T09:40:35;13.20;99.90
31991;DHT22;18508;49.386;8.370;2023-04-15T09:43:06;13.40;99.90
31991;DHT22;18508;49.386;8.370;2023-04-15T09:45:37;13.50;99.90
31991;DHT22;18508;49.386;8.370;2023-04-15T09:48:14;13.60;99.90
31991;DHT22;18508;49.386;8.370;2023-04-15T09:50:43;13.80;99.90
31991;DHT22;18508;49.386;8.370;2023-04-15T09:53:14;14.10;99.90
31991;DHT22;18508;49.386;8.370;2023-04-15T09:55:48;14.40;99.90
31991;DHT22;18508;49.386;8.370;2023-04-15T09:58:18;14.60;1.00
31991;DHT22;18508;49.386;8.370;2023-04-15T10:00:48;14.60;1.00
31991;DHT22;18508;49.386;8.370;2023-04-15T10:03:18;14.60;1.00
31991;DHT22;18508;49.386;8.370;2023-04-15T10:05:50;14.60;1.00
31991;DHT22;18508;49.386;8.370;2023-04-15T10:08:19;14.70;1.00
31991;DHT22;18508;49.386;8.370;2023-04-15T10:10:49;14.90;1.00
31991;DHT22;18508;49.386;8.370;2023-04-15T10:13:20;14.90;1.00
31991;DHT22;18508;49.386;8.370;2023-04-15T10:15:51;14.90;1.00
31991;DHT22;18508;49.386;8.370;2023-04-15T10:18:24;15.00;1.00
31991;DHT22;18508;49.386;8.370;2023-04-15T10:20:54;15.00;1.00
31991;DHT22;18508;49.386;8.370;2023-04-15T10:23:22;15.00;1.00
31991;DHT22;18508;49.386;8.370;2023-04-15T10:25:53;15.00;1.00
31991;DHT22;18508;49.386;8.370;2023-04-15T10:28:24;15.00;1.00
31991;DHT22;18508;49.386;8.370;2023-04-15T10:30:53;15.20;1.00
31991;DHT22;18508;49.386;8.370;2023-04-15T10:33:23;15.30;1.00
31991;DHT22;18508;49.386;8.370;2023-04-15T10:35:53;15.50;1.00
31991;DHT22;18508;49.386;8.370;2023-04-15T10:38:33;15.60;1.00
31991;DHT22;18508;49.386;8.370;2023-04-15T10:41:17;15.40;1.00
31991;DHT22;18508;49.386;8.370;2023-04-15T10:43:49;15.30;1.00
31991;DHT22;18508;49.386;8.370;2023-04-15T10:46:21;15.40;1.00
31991;DHT22;18508;49.386;8.370;2023-04-15T10:48:51;15.20;69.80
31991;DHT22;18508;49.386;8.370;2023-04-15T10:51:30;15.10;50.60
31991;DHT22;18508;49.386;8.370;2023-04-15T10:53:59;15.30;99.90
31991;DHT22;18508;49.386;8.370;2023-04-15T10:56:31;15.40;99.90
31991;DHT22;18508;49.386;8.370;2023-04-15T10:58:59;15.50;99.90
31991;DHT22;18508;49.386;8.370;2023-04-15T11:01:51;15.80;99.90
31991;DHT22;18508;49.386;8.370;2023-04-15T11:04:49;15.70;99.90
31991;DHT22;18508;49.386;8.370;2023-04-15T11:07:34;15.70;99.90
31991;DHT22;18508;49.386;8.370;2023-04-15T11:10:03;15.90;99.90
31991;DHT22;18508;49.386;8.370;2023-04-15T11:12:35;16.20;99.90
31991;DHT22;18508;49.386;8.370;2023-04-15T11:15:26;16.00;99.90
31991;DHT22;18508;49.386;8.370;2023-04-15T11:17:57;15.90;99.90
31991;DHT22;18508;49.386;8.370;2023-04-15T11:20:25;15.80;99.90
31991;DHT22;18508;49.386;8.370;2023-04-15T11:22:55;15.80;99.90
31991;DHT22;18508;49.386;8.370;2023-04-15T11:25:41;16.00;99.90
31991;DHT22;18508;49.386;8.370;2023-04-15T11:28:12;16.10;99.90
31991;DHT22;18508;49.386;8.370;2023-04-15T11:30:41;16.50;99.90
31991;DHT22;18508;49.386;8.370;2023-04-15T11:33:11;16.40;99.90
31991;DHT22;18508;49.386;8.370;2023-04-15T11:35:40;16.20;99.90
31991;DHT22;18508;49.386;8.370;2023-04-15T11:38:11;16.40;99.90
31991;DHT22;18508;49.386;8.370;2023-04-15T11:40:41;16.40;99.90
31991;DHT22;18508;49.386;8.370;2023-04-15T11:43:15;16.60;99.90
31991;DHT22;18508;49.386;8.370;2023-04-15T11:45:49;16.60;99.90
31991;DHT22;18508;49.386;8.370;2023-04-15T11:48:20;16.60;99.90
31991;DHT22;18508;49.386;8.370;2023-04-15T11:50:53;16.80;99.90
31991;DHT22;18508;49.386;8.370;2023-04-15T11:53:22;17.00;99.90
31991;DHT22;18508;49.386;8.370;2023-04-15T11:55:52;16.80;99.90
31991;DHT22;18508;49.386;8.370;2023-04-15T11:58:26;17.20;99.90
31991;DHT22;18508;49.386;8.370;2023-04-15T12:00:57;16.70;99.90
31991;DHT22;18508;49.386;8.370;2023-04-15T12:03:28;16.50;99.90
31991;DHT22;18508;49.386;8.370;2023-04-15T12:06:08;16.50;99.90
31991;DHT22;18508;49.386;8.370;2023-04-15T12:08:52;16.30;99.90
31991;DHT22;18508;49.386;8.370;2023-04-15T12:11:37;16.70;99.90
31991;DHT22;18508;49.386;8.370;2023-04-15T12:14:10;16.60;99.90
31991;DHT22;18508;49.386;8.370;2023-04-15T12:16:40;16.60;99.90
31991;DHT22;18508;49.386;8.370;2023-04-15T12:19:21;16.40;99.90
31991;DHT22;18508;49.386;8.370;2023-04-15T12:21:50;16.40;99.90
31991;DHT22;18508;49.386;8.370;2023-04-15T12:24:20;16.20;99.90
31991;DHT22;18508;49.386;8.370;2023-04-15T12:26:51;15.90;99.90
31991;DHT22;18508;49.386;8.370;2023-04-15T12:29:25;16.20;99.90
31991;DHT22;18508;49.386;8.370;2023-04-15T12:31:54;16.40;99.90
31991;DHT22;18508;49.386;8.370;2023-04-15T12:34:27;16.30;99.90
31991;DHT22;18508;49.386;8.370;2023-04-15T12:36:56;15.90;99.90
31991;DHT22;18508;49.386;8.370;2023-04-15T12:39:25;15.70;99.90
31991;DHT22;18508;49.386;8.370;2023-04-15T12:41:56;15.40;99.90
31991;DHT22;18508;49.386;8.370;2023-04-15T12:44:30;15.30;99.90
31991;DHT22;18508;49.386;8.370;2023-04-15T12:46:58;15.30;99.90
31991;DHT22;18508;49.386;8.370;2023-04-15T12:49:28;15.40;99.90
31991;DHT22;18508;49.386;8.370;2023-04-15T12:51:56;15.20;99.90
31991;DHT22;18508;49.386;8.370;2023-04-15T12:54:26;15.10;99.90
31991;DHT22;18508;49.386;8.370;2023-04-15T12:56:55;15.00;99.90
31991;DHT22;18508;49.386;8.370;2023-04-15T12:59:24;14.90;99.90
31991;DHT22;18508;49.386;8.370;2023-04-15T13:01:53;15.00;99.90
31991;DHT22;18508;49.386;8.370;2023-04-15T13:04:21;15.00;99.90
31991;DHT22;18508;49.386;8.370;2023-04-15T13:06:50;15.10;99.90
31991;DHT22;18508;49.386;8.370;2023-04-15T13:09:19;14.90;99.90
31991;DHT22;18508;49.386;8.370;2023-04-15T13:11:48;15.00;99.90
31991;DHT22;18508;49.386;8.370;2023-04-15T13:14:18;15.00;99.90
31991;DHT22;18508;49.386;8.370;2023-04-15T13:16:48;14.80;99.90
31991;DHT22;18508;49.386;8.370;2023-04-15T13:19:17;14.70;99.90
31991;DHT22;18508;49.386;8.370;2023-04-15T13:21:46;14.70;99.90
31991;DHT22;18508;49.386;8.370;2023-04-15T13:24:14;14.60;99.90
31991;DHT22;18508;49.386;8.370;2023-04-15T13:26:42;14.60;99.90
31991;DHT22;18508;49.386;8.370;2023-04-15T13:29:10;14.60;99.90
31991;DHT22;18508;49.386;8.370;2023-04-15T13:31:39;14.70;99.90
31991;DHT22;18508;49.386;8.370;2023-04-15T13:34:08;14.70;99.90
31991;DHT22;18508;49.386;8.370;2023-04-15T13:36:37;14.60;99.90
31991;DHT22;18508;49.386;8.370;2023-04-15T13:39:05;14.70;99.90
31991;DHT22;18508;49.386;8.370;2023-04-15T13:41:37;14.50;99.90
31991;DHT22;18508;49.386;8.370;2023-04-15T13:44:06;14.50;99.90
31991;DHT22;18508;49.386;8.370;2023-04-15T13:49:05;14.60;99.90
31991;DHT22;18508;49.386;8.370;2023-04-15T13:51:33;14.60;99.90
31991;DHT22;18508;49.386;8.370;2023-04-15T13:54:04;14.70;99.90
31991;DHT22;18508;49.386;8.370;2023-04-15T13:56:32;14.90;99.90
31991;DHT22;18508;49.386;8.370;2023-04-15T13:59:01;14.90;99.90
31991;DHT22;18508;49.386;8.370;2023-04-15T14:01:29;15.00;99.90
31991;DHT22;18508;49.386;8.370;2023-04-15T14:03:58;15.00;99.90
31991;DHT22;18508;49.386;8.370;2023-04-15T14:06:27;15.20;99.90
31991;DHT22;18508;49.386;8.370;2023-04-15T14:08:54;15.40;99.90
31991;DHT22;18508;49.386;8.370;2023-04-15T14:11:24;15.50;99.90
31991;DHT22;18508;49.386;8.370;2023-04-15T14:13:52;15.50;99.90
31991;DHT22;18508;49.386;8.370;2023-04-15T14:16:20;15.20;99.90
31991;DHT22;18508;49.386;8.370;2023-04-15T14:18:48;15.30;99.90
31991;DHT22;18508;49.386;8.370;2023-04-15T14:21:16;15.20;99.90
31991;DHT22;18508;49.386;8.370;2023-04-15T14:23:45;15.20;99.90
31991;DHT22;18508;49.386;8.370;2023-04-15T14:26:13;15.10;99.90
31991;DHT22;18508;49.386;8.370;2023-04-15T14:28:45;15.30;99.90
31991;DHT22;18508;49.386;8.370;2023-04-15T14:31:14;15.30;99.90
31991;DHT22;18508;49.386;8.370;2023-04-15T14:33:42;15.20;99.90
31991;DHT22;18508;49.386;8.370;2023-04-15T14:36:13;15.00;99.90
31991;DHT22;18508;49.386;8.370;2023-04-15T14:38:41;15.00;99.90
31991;DHT22;18508;49.386;8.370;2023-04-15T14:41:09;15.00;99.90
31991;DHT22;18508;49.386;8.370;2023-04-15T14:43:38;15.00;99.90
31991;DHT22;18508;49.386;8.370;2023-04-15T14:46:09;14.80;99.90
31991;DHT22;18508;49.386;8.370;2023-04-15T14:48:37;15.10;99.90
31991;DHT22;18508;49.386;8.370;2023-04-15T14:51:05;15.00;99.90
31991;DHT22;18508;49.386;8.370;2023-04-15T14:53:33;15.30;99.90
31991;DHT22;18508;49.386;8.370;2023-04-15T14:56:01;15.10;99.90
31991;DHT22;18508;49.386;8.370;2023-04-15T14:58:30;14.80;99.90
31991;DHT22;18508;49.386;8.370;2023-04-15T15:00:59;14.70;99.90
31991;DHT22;18508;49.386;8.370;2023-04-15T15:03:29;14.60;99.90
31991;DHT22;18508;49.386;8.370;2023-04-15T15:05:57;14.70;99.90
31991;DHT22;18508;49.386;8.370;2023-04-15T15:08:25;14.60;99.90
31991;DHT22;18508;49.386;8.370;2023-04-15T15:10:54;14.50;99.90
31991;DHT22;18508;49.386;8.370;2023-04-15T15:13:22;14.00;99.90
31991;DHT22;18508;49.386;8.370;2023-04-15T15:15:51;13.60;1.00
31991;DHT22;18508;49.386;8.370;2023-04-15T15:18:20;13.20;1.00
31991;DHT22;18508;49.386;8.370;2023-04-15T15:20:49;12.90;1.00
31991;DHT22;18508;49.386;8.370;2023-04-15T15:23:17;12.80;1.00
31991;DHT22;18508;49.386;8.370;2023-04-15T15:25:45;12.70;1.00
31991;DHT22;18508;49.386;8.370;2023-04-15T15:28:14;12.60;1.00
31991;DHT22;18508;49.386;8.370;2023-04-15T15:30:42;12.40;1.00
31991;DHT22;18508;49.386;8.370;2023-04-15T15:33:11;12.30;53.60
31991;DHT22;18508;49.386;8.370;2023-04-15T15:35:39;12.30;99.90
31991;DHT22;18508;49.386;8.370;2023-04-15T15:38:10;12.30;54.50
31991;DHT22;18508;49.386;8.370;2023-04-15T15:40:39;12.20;13.50
31991;DHT22;18508;49.386;8.370;2023-04-15T15:43:07;12.20;39.00
31991;DHT22;18508;49.386;8.370;2023-04-15T15:48:04;12.20;23.80
31991;DHT22;18508;49.386;8.370;2023-04-15T15:50:33;12.20;68.60
31991;DHT22;18508;49.386;8.370;2023-04-15T15:53:01;12.20;99.90
31991;DHT22;18508;49.386;8.370;2023-04-15T15:55:31;12.20;99.90
31991;DHT22;18508;49.386;8.370;2023-04-15T15:58:00;12.00;99.90
31991;DHT22;18508;49.386;8.370;2023-04-15T16:00:28;11.90;99.90
31991;DHT22;18508;49.386;8.370;2023-04-15T16:02:57;11.90;99.90